M/V Sacred Heart — WDD7662 — position and weather

sailwx.info

Track history (hours):
 
Tides and Currents Weather Stations Pressure Air Temp Water Temp Dewpoint Dewpoint Depression Visibility Wind Speed Wind Dir Waves Ship Positions

M/V Sacred Heart

Owner: Marquette Transportation Company Gulf-Inland, LLC, Jefferson, LA. More information available from US FCC via Universal Licensing System.

Last reported at 2017-Oct-18 18:02 UTC. Time now 2017-Oct-19 09:02 UTC.
Position N 29°34' W 090°28'.

Length 21 m.

Type: . MMSI: 367189510.

Date/timePositionNaut miles runAvg speedWind from/ knotsBaromVisibWave heightAir tempDewpointWater temp
2017-Oct-18 18:02N 29°34' W 090°28'0 3.8
2017-Oct-18 18:00N 29°34' W 090°29'2 3.8
2017-Oct-18 17:30N 29°34' W 090°31'2 4.0
2017-Oct-18 17:00N 29°34' W 090°33'2 4.0
2017-Oct-18 16:29N 29°35' W 090°35'2 3.7
2017-Oct-18 16:00N 29°35' W 090°37'1 1.8
2017-Oct-18 15:30N 29°35' W 090°38'0 0.0
2017-Oct-18 15:00N 29°35' W 090°38'0 0.1
2017-Oct-18 14:00N 29°35' W 090°38'0 0.0
2017-Oct-18 13:30N 29°35' W 090°38'0 0.2
2017-Oct-18 13:00N 29°35' W 090°38'0 0.1
2017-Oct-18 12:30N 29°35' W 090°38'0 0.5
2017-Oct-18 12:00N 29°35' W 090°39'0 0.6
2017-Oct-18 11:30N 29°36' W 090°39'0 0.5
2017-Oct-18 11:00N 29°36' W 090°39'1 2.1
2017-Oct-18 10:30N 29°36' W 090°40'1 2.8
2017-Oct-18 10:00N 29°37' W 090°42'1 2.2
2017-Oct-18 09:30N 29°36' W 090°43'1 2.8
2017-Oct-18 09:00N 29°35' W 090°43'1 2.3
2017-Oct-18 08:30N 29°34' W 090°44'1 2.7
2017-Oct-18 08:00N 29°33' W 090°45'1 2.7
2017-Oct-18 07:30N 29°32' W 090°46'2 3.1
2017-Oct-18 07:00N 29°32' W 090°48'2 3.1
2017-Oct-18 06:30N 29°32' W 090°50'1 2.1
2017-Oct-18 05:57N 29°32' W 090°51'2 4.5
2017-Oct-18 05:27N 29°33' W 090°54'  
2017-Oct-15 07:31N 29°32' W 090°49'0 5.7
2017-Oct-15 07:30N 29°32' W 090°49'3 5.3
2017-Oct-15 07:00N 29°32' W 090°46'2 4.7
2017-Oct-15 06:30N 29°34' W 090°44'2 3.7
2017-Oct-15 06:00N 29°36' W 090°43'1 2.9
2017-Oct-15 05:30N 29°37' W 090°41'1 1.5
2017-Oct-15 05:00N 29°36' W 090°41'0 0.6
2017-Oct-15 04:30N 29°36' W 090°40'2 3.7
2017-Oct-15 04:00N 29°35' W 090°38'3 6.3
2017-Oct-15 03:30N 29°35' W 090°35'  
2017-Oct-12 19:16N 29°34' W 090°29'1 5.0
2017-Oct-12 19:00N 29°34' W 090°31'2 4.9
2017-Oct-12 18:30N 29°34' W 090°34'2 4.5
2017-Oct-12 18:00N 29°35' W 090°36'2 4.3
2017-Oct-12 17:30N 29°35' W 090°38'2 3.7
2017-Oct-12 17:00N 29°36' W 090°40'2 3.8
2017-Oct-12 16:30N 29°37' W 090°42'2 4.2
2017-Oct-12 16:00N 29°34' W 090°43'2 4.2
2017-Oct-12 15:30N 29°33' W 090°45'2 4.4
2017-Oct-12 15:00N 29°32' W 090°47'67 3.7
2017-Oct-11 20:58N 29°49' W 092°02'2 4.6
2017-Oct-11 20:30N 29°48' W 092°04'2 4.2
2017-Oct-11 20:00N 29°48' W 092°07'2 4.5
2017-Oct-11 19:30N 29°47' W 092°09'2 4.5
2017-Oct-11 19:00N 29°47' W 092°12'2 3.5
2017-Oct-11 18:30N 29°48' W 092°14'1 2.4
2017-Oct-11 18:00N 29°48' W 092°15'2 4.6
2017-Oct-11 17:29N 29°49' W 092°17'55 3.2
2017-Oct-11 00:00N 30°06' W 093°18'0 0.1
2017-Oct-10 23:30N 30°06' W 093°18'0 0.0
2017-Oct-10 23:00N 30°06' W 093°18'0 0.0
2017-Oct-10 22:30N 30°06' W 093°18'0 0.0
2017-Oct-10 22:00N 30°06' W 093°18'0 0.0
2017-Oct-10 21:30N 30°06' W 093°18'0 0.0
2017-Oct-10 21:00N 30°06' W 093°18'0 0.0
2017-Oct-10 20:30N 30°06' W 093°18'0 0.0
2017-Oct-10 20:00N 30°06' W 093°18'0 0.0
2017-Oct-10 19:30N 30°06' W 093°18'0 0.0
2017-Oct-10 19:00N 30°06' W 093°18'0 0.0
2017-Oct-10 18:30N 30°06' W 093°18'0 0.2
2017-Oct-10 18:00N 30°06' W 093°18'2 4.0
2017-Oct-10 17:30N 30°05' W 093°20'2 3.7
2017-Oct-10 17:00N 30°04' W 093°22'1 2.2
2017-Oct-10 16:30N 30°04' W 093°23'0 0.0
2017-Oct-10 16:00N 30°04' W 093°23'0 0.7
2017-Oct-10 15:30N 30°04' W 093°23'2 4.9
2017-Oct-10 15:00N 30°04' W 093°26'5 4.7
2017-Oct-10 13:59N 30°04' W 093°32'  
Track history (hours):
 
Tides and Currents Weather Stations Pressure Air Temp Water Temp Dewpoint Dewpoint Depression Visibility Wind Speed Wind Dir Waves Ship Positions

M/V Sacred Heart

Owner: Marquette Transportation Company Gulf-Inland, LLC, Jefferson, LA. More information available from US FCC via Universal Licensing System.

Last reported at 2017-Oct-18 18:02 UTC. Time now 2017-Oct-19 09:02 UTC.
Position N 29°34' W 090°28'.

Length 21 m.

Type: . MMSI: 367189510.

Date/timePositionNaut miles runAvg speedWind from/ knotsBaromVisibWave heightAir tempDewpointWater temp
2017-Oct-18 18:02N 29°34' W 090°28'0 3.8
2017-Oct-18 18:00N 29°34' W 090°29'2 3.8
2017-Oct-18 17:30N 29°34' W 090°31'2 4.0
2017-Oct-18 17:00N 29°34' W 090°33'2 4.0
2017-Oct-18 16:29N 29°35' W 090°35'2 3.7
2017-Oct-18 16:00N 29°35' W 090°37'1 1.8
2017-Oct-18 15:30N 29°35' W 090°38'0 0.0
2017-Oct-18 15:00N 29°35' W 090°38'0 0.1
2017-Oct-18 14:00N 29°35' W 090°38'0 0.0
2017-Oct-18 13:30N 29°35' W 090°38'0 0.2
2017-Oct-18 13:00N 29°35' W 090°38'0 0.1
2017-Oct-18 12:30N 29°35' W 090°38'0 0.5
2017-Oct-18 12:00N 29°35' W 090°39'0 0.6
2017-Oct-18 11:30N 29°36' W 090°39'0 0.5
2017-Oct-18 11:00N 29°36' W 090°39'1 2.1
2017-Oct-18 10:30N 29°36' W 090°40'1 2.8
2017-Oct-18 10:00N 29°37' W 090°42'1 2.2
2017-Oct-18 09:30N 29°36' W 090°43'1 2.8
2017-Oct-18 09:00N 29°35' W 090°43'1 2.3
2017-Oct-18 08:30N 29°34' W 090°44'1 2.7
2017-Oct-18 08:00N 29°33' W 090°45'1 2.7
2017-Oct-18 07:30N 29°32' W 090°46'2 3.1
2017-Oct-18 07:00N 29°32' W 090°48'2 3.1
2017-Oct-18 06:30N 29°32' W 090°50'1 2.1
2017-Oct-18 05:57N 29°32' W 090°51'2 4.5
2017-Oct-18 05:27N 29°33' W 090°54'  
2017-Oct-15 07:31N 29°32' W 090°49'0 5.7
2017-Oct-15 07:30N 29°32' W 090°49'3 5.3
2017-Oct-15 07:00N 29°32' W 090°46'2 4.7
2017-Oct-15 06:30N 29°34' W 090°44'2 3.7
2017-Oct-15 06:00N 29°36' W 090°43'1 2.9
2017-Oct-15 05:30N 29°37' W 090°41'1 1.5
2017-Oct-15 05:00N 29°36' W 090°41'0 0.6
2017-Oct-15 04:30N 29°36' W 090°40'2 3.7
2017-Oct-15 04:00N 29°35' W 090°38'3 6.3
2017-Oct-15 03:30N 29°35' W 090°35'  
2017-Oct-12 19:16N 29°34' W 090°29'1 5.0
2017-Oct-12 19:00N 29°34' W 090°31'2 4.9
2017-Oct-12 18:30N 29°34' W 090°34'2 4.5
2017-Oct-12 18:00N 29°35' W 090°36'2 4.3
2017-Oct-12 17:30N 29°35' W 090°38'2 3.7
2017-Oct-12 17:00N 29°36' W 090°40'2 3.8
2017-Oct-12 16:30N 29°37' W 090°42'2 4.2
2017-Oct-12 16:00N 29°34' W 090°43'2 4.2
2017-Oct-12 15:30N 29°33' W 090°45'2 4.4
2017-Oct-12 15:00N 29°32' W 090°47'67 3.7
2017-Oct-11 20:58N 29°49' W 092°02'2 4.6
2017-Oct-11 20:30N 29°48' W 092°04'2 4.2
2017-Oct-11 20:00N 29°48' W 092°07'2 4.5
2017-Oct-11 19:30N 29°47' W 092°09'2 4.5
2017-Oct-11 19:00N 29°47' W 092°12'2 3.5
2017-Oct-11 18:30N 29°48' W 092°14'1 2.4
2017-Oct-11 18:00N 29°48' W 092°15'2 4.6
2017-Oct-11 17:29N 29°49' W 092°17'55 3.2
2017-Oct-11 00:00N 30°06' W 093°18'0 0.1
2017-Oct-10 23:30N 30°06' W 093°18'0 0.0
2017-Oct-10 23:00N 30°06' W 093°18'0 0.0
2017-Oct-10 22:30N 30°06' W 093°18'0 0.0
2017-Oct-10 22:00N 30°06' W 093°18'0 0.0
2017-Oct-10 21:30N 30°06' W 093°18'0 0.0
2017-Oct-10 21:00N 30°06' W 093°18'0 0.0
2017-Oct-10 20:30N 30°06' W 093°18'0 0.0
2017-Oct-10 20:00N 30°06' W 093°18'0 0.0
2017-Oct-10 19:30N 30°06' W 093°18'0 0.0
2017-Oct-10 19:00N 30°06' W 093°18'0 0.0
2017-Oct-10 18:30N 30°06' W 093°18'0 0.2
2017-Oct-10 18:00N 30°06' W 093°18'2 4.0
2017-Oct-10 17:30N 30°05' W 093°20'2 3.7
2017-Oct-10 17:00N 30°04' W 093°22'1 2.2
2017-Oct-10 16:30N 30°04' W 093°23'0 0.0
2017-Oct-10 16:00N 30°04' W 093°23'0 0.7
2017-Oct-10 15:30N 30°04' W 093°23'2 4.9
2017-Oct-10 15:00N 30°04' W 093°26'5 4.7
2017-Oct-10 13:59N 30°04' W 093°32'  

Dump ship's entire track history